createdAt,value
2019-03-20T00:00:38.080Z,0
2019-03-20T00:01:48.392Z,0
2019-03-20T00:02:38.056Z,0
2019-03-20T00:03:38.022Z,0
2019-03-20T00:04:48.953Z,0
2019-03-20T00:05:38.005Z,0
2019-03-20T00:06:37.980Z,0
2019-03-20T00:07:37.959Z,0
2019-03-20T00:08:37.948Z,0
2019-03-20T00:09:37.932Z,0
2019-03-20T00:10:37.905Z,0
2019-03-20T00:11:37.892Z,0
2019-03-20T00:12:37.876Z,0
2019-03-20T00:13:37.854Z,0
2019-03-20T00:14:37.850Z,0
2019-03-20T00:15:37.817Z,0
2019-03-20T00:16:37.820Z,0
2019-03-20T00:17:37.806Z,0
2019-03-20T00:18:37.770Z,0
2019-03-20T00:19:37.763Z,0
2019-03-20T00:20:37.736Z,0
2019-03-20T00:21:37.719Z,0
2019-03-20T00:22:37.765Z,0
2019-03-20T00:23:37.685Z,0
2019-03-20T00:24:37.670Z,0
2019-03-20T00:25:37.672Z,0
2019-03-20T00:26:37.642Z,0
2019-03-20T00:27:37.683Z,0
2019-03-20T00:28:37.364Z,0
2019-03-20T00:29:37.591Z,0
2019-03-20T00:30:37.585Z,0
2019-03-20T00:31:37.557Z,0
2019-03-20T00:32:37.545Z,0
2019-03-20T00:33:37.520Z,0
2019-03-20T00:34:37.509Z,0
2019-03-20T00:35:37.484Z,0
2019-03-20T00:36:37.468Z,0
2019-03-20T00:37:37.445Z,0
2019-03-20T00:38:37.437Z,0
2019-03-20T00:39:37.415Z,0
2019-03-20T00:40:37.395Z,0
2019-03-20T00:41:37.390Z,0
2019-03-20T00:42:37.980Z,0
2019-03-20T00:43:37.344Z,0
2019-03-20T00:44:37.332Z,0
2019-03-20T00:45:37.069Z,0
2019-03-20T00:46:37.336Z,0
2019-03-20T00:47:37.285Z,0
2019-03-20T00:48:37.271Z,0
2019-03-20T00:49:37.251Z,0
2019-03-20T00:50:37.235Z,0
2019-03-20T00:51:37.242Z,0
2019-03-20T00:52:37.197Z,0
2019-03-20T00:53:37.224Z,0
2019-03-20T00:54:36.928Z,0
2019-03-20T00:55:37.149Z,0
2019-03-20T00:56:37.161Z,0
2019-03-20T00:57:37.113Z,0
2019-03-20T00:58:39.519Z,0
2019-03-20T00:59:37.078Z,0
2019-03-20T01:00:37.063Z,0
2019-03-20T01:01:37.048Z,0
2019-03-20T01:02:37.033Z,0
2019-03-20T01:03:37.016Z,0
2019-03-20T01:04:36.746Z,0
2019-03-20T01:05:36.991Z,0
2019-03-20T01:06:36.967Z,0
2019-03-20T01:07:36.958Z,0
2019-03-20T01:08:36.931Z,0
2019-03-20T01:09:36.978Z,0
2019-03-20T01:10:36.892Z,0
2019-03-20T01:11:36.895Z,0
2019-03-20T01:12:36.857Z,0
2019-03-20T01:13:36.845Z,0
2019-03-20T01:14:36.816Z,0
2019-03-20T01:15:36.885Z,0
2019-03-20T01:16:36.537Z,0
2019-03-20T01:17:36.803Z,0
2019-03-20T01:18:36.752Z,0
2019-03-20T01:19:36.727Z,0
2019-03-20T01:20:36.719Z,0
2019-03-20T01:21:36.697Z,0
2019-03-20T01:22:36.678Z,0
2019-03-20T01:23:36.662Z,0
2019-03-20T01:24:36.649Z,0
2019-03-20T01:25:37.686Z,0
2019-03-20T01:26:36.619Z,0
2019-03-20T01:27:36.651Z,0
2019-03-20T01:28:36.579Z,0
2019-03-20T01:29:36.564Z,0
2019-03-20T01:30:36.568Z,0
2019-03-20T01:31:36.549Z,0
2019-03-20T01:32:36.568Z,0
2019-03-20T01:33:36.505Z,0
2019-03-20T01:34:36.496Z,0
2019-03-20T01:35:36.471Z,0
2019-03-20T01:36:36.445Z,0
2019-03-20T01:37:36.428Z,0
2019-03-20T01:38:36.421Z,0
2019-03-20T01:39:36.441Z,0
2019-03-20T01:40:36.374Z,0
2019-03-20T01:41:47.026Z,0
2019-03-20T01:42:36.338Z,0
2019-03-20T01:43:36.322Z,0
2019-03-20T01:44:36.310Z,0
2019-03-20T01:45:36.292Z,0
2019-03-20T01:46:36.280Z,0
2019-03-20T01:47:36.258Z,0
2019-03-20T01:48:36.254Z,0
2019-03-20T01:49:36.232Z,0
2019-03-20T01:50:36.200Z,0
2019-03-20T01:51:36.194Z,0
2019-03-20T01:52:36.167Z,0
2019-03-20T01:53:36.162Z,0
2019-03-20T01:54:36.149Z,0
2019-03-20T01:55:36.124Z,0
2019-03-20T01:56:36.115Z,0
2019-03-20T01:57:36.087Z,0
2019-03-20T01:58:36.079Z,0
2019-03-20T01:59:36.052Z,0
2019-03-20T02:00:36.066Z,0
2019-03-20T02:01:36.018Z,0
2019-03-20T02:02:36.000Z,0
2019-03-20T02:03:36.010Z,0
2019-03-20T02:04:35.965Z,0
2019-03-20T02:05:44.676Z,0
2019-03-20T02:06:35.689Z,0
2019-03-20T02:07:35.924Z,0
2019-03-20T02:08:35.910Z,0
2019-03-20T02:09:35.888Z,0
2019-03-20T02:10:35.879Z,0
2019-03-20T02:11:35.851Z,0
2019-03-20T02:12:35.829Z,0
2019-03-20T02:13:35.823Z,0
2019-03-20T02:14:35.806Z,0
2019-03-20T02:15:47.465Z,0
2019-03-20T02:16:35.822Z,0
2019-03-20T02:17:35.807Z,0
2019-03-20T02:18:35.786Z,0
2019-03-20T02:19:35.767Z,0
2019-03-20T02:20:35.748Z,0
2019-03-20T02:21:35.778Z,0
2019-03-20T02:22:35.722Z,0
2019-03-20T02:23:35.699Z,0
2019-03-20T02:24:35.685Z,0
2019-03-20T02:25:37.194Z,0
2019-03-20T02:26:35.651Z,0
2019-03-20T02:27:35.628Z,0
2019-03-20T02:28:35.609Z,0
2019-03-20T02:29:35.595Z,0
2019-03-20T02:30:35.598Z,0
2019-03-20T02:31:35.579Z,0
2019-03-20T02:32:35.551Z,0
2019-03-20T02:33:35.553Z,0
2019-03-20T02:34:35.528Z,0
2019-03-20T02:35:50.129Z,0
2019-03-20T02:36:35.495Z,0
2019-03-20T02:37:35.484Z,0
2019-03-20T02:38:35.460Z,0
2019-03-20T02:39:35.195Z,0
2019-03-20T02:40:35.445Z,0
2019-03-20T02:41:35.182Z,0
2019-03-20T02:42:35.401Z,0
2019-03-20T02:43:35.124Z,0
2019-03-20T02:44:35.387Z,0
2019-03-20T02:45:35.322Z,0
2019-03-20T02:46:35.303Z,0
2019-03-20T02:47:35.298Z,0
2019-03-20T02:48:35.038Z,0
2019-03-20T02:49:35.323Z,0
2019-03-20T02:50:35.244Z,0
2019-03-20T02:51:35.223Z,0
2019-03-20T02:52:35.206Z,0
2019-03-20T02:53:35.185Z,0
2019-03-20T02:54:34.917Z,0
2019-03-20T02:55:35.210Z,0
2019-03-20T02:56:35.165Z,0
2019-03-20T02:57:35.120Z,0
2019-03-20T02:58:34.871Z,0
2019-03-20T02:59:35.162Z,0
2019-03-20T03:00:35.087Z,0
2019-03-20T03:01:35.061Z,0
2019-03-20T03:02:35.043Z,0
2019-03-20T03:03:34.784Z,0
2019-03-20T03:04:35.041Z,0
2019-03-20T03:05:34.987Z,0
2019-03-20T03:06:34.962Z,0
2019-03-20T03:07:34.964Z,0
2019-03-20T03:08:34.684Z,0
2019-03-20T03:09:34.931Z,0
2019-03-20T03:10:34.915Z,0
2019-03-20T03:11:34.871Z,0
2019-03-20T03:12:34.640Z,0
2019-03-20T03:13:34.845Z,0
2019-03-20T03:14:34.823Z,0
2019-03-20T03:15:34.802Z,0
2019-03-20T03:16:34.806Z,0
2019-03-20T03:17:34.779Z,0
2019-03-20T03:18:34.782Z,0
2019-03-20T03:19:34.757Z,0
2019-03-20T03:20:34.736Z,0
2019-03-20T03:21:34.716Z,0
2019-03-20T03:22:34.708Z,0
2019-03-20T03:23:34.683Z,0
2019-03-20T03:24:34.425Z,0
2019-03-20T03:25:34.676Z,0
2019-03-20T03:26:34.619Z,0
2019-03-20T03:27:34.633Z,0
2019-03-20T03:28:34.327Z,0
2019-03-20T03:29:34.615Z,0
2019-03-20T03:30:34.585Z,0
2019-03-20T03:31:34.580Z,0
2019-03-20T03:32:34.770Z,0
2019-03-20T03:33:34.619Z,0
2019-03-20T03:34:34.258Z,0
2019-03-20T03:35:34.495Z,0
2019-03-20T03:36:34.552Z,0
2019-03-20T03:37:34.467Z,0
2019-03-20T03:38:34.426Z,0
2019-03-20T03:39:34.399Z,0
2019-03-20T03:40:34.393Z,0
2019-03-20T03:41:34.377Z,0
2019-03-20T03:42:34.346Z,0
2019-03-20T03:43:34.345Z,0
2019-03-20T03:44:34.066Z,0
2019-03-20T03:45:34.305Z,0
2019-03-20T03:46:34.274Z,0
2019-03-20T03:47:34.337Z,0
2019-03-20T03:48:34.257Z,0
2019-03-20T03:49:34.253Z,0
2019-03-20T03:50:33.957Z,0
2019-03-20T03:51:33.705Z,0
2019-03-20T03:52:34.173Z,0
2019-03-20T03:53:34.164Z,0
2019-03-20T03:54:34.132Z,0
2019-03-20T03:55:34.116Z,0
2019-03-20T03:56:34.107Z,0
2019-03-20T03:57:34.086Z,0
2019-03-20T03:58:37.539Z,0
2019-03-20T03:59:34.050Z,0
2019-03-20T04:00:34.063Z,0
2019-03-20T04:01:34.082Z,0
2019-03-20T04:02:33.974Z,0
2019-03-20T04:03:33.987Z,0
2019-03-20T04:04:33.889Z,0
2019-03-20T04:05:33.923Z,0
2019-03-20T04:06:44.435Z,0
2019-03-20T04:07:33.948Z,0
2019-03-20T04:08:33.844Z,0
2019-03-20T04:09:33.845Z,0
2019-03-20T04:10:33.871Z,0
2019-03-20T04:11:33.768Z,0
2019-03-20T04:12:33.555Z,0
2019-03-20T04:13:33.780Z,0
2019-03-20T04:14:33.765Z,0
2019-03-20T04:15:36.218Z,0
2019-03-20T04:16:33.685Z,0
2019-03-20T04:17:33.743Z,0
2019-03-20T04:18:33.674Z,0
2019-03-20T04:19:33.679Z,0
2019-03-20T04:20:33.624Z,0
2019-03-20T04:21:33.626Z,0
2019-03-20T04:22:33.605Z,0
2019-03-20T04:23:33.599Z,0
2019-03-20T04:24:33.535Z,0
2019-03-20T04:25:33.587Z,0
2019-03-20T04:26:33.550Z,0
2019-03-20T04:27:33.301Z,0
2019-03-20T04:28:33.464Z,0
2019-03-20T04:29:33.227Z,0
2019-03-20T04:30:33.449Z,0
2019-03-20T04:31:33.223Z,0
2019-03-20T04:32:33.447Z,0
2019-03-20T04:33:33.389Z,0
2019-03-20T04:34:33.393Z,0
2019-03-20T04:35:33.137Z,0
2019-03-20T04:36:33.340Z,0
2019-03-20T04:37:33.345Z,0
2019-03-20T04:38:33.303Z,0
2019-03-20T04:39:33.317Z,0
2019-03-20T04:40:33.261Z,0
2019-03-20T04:41:33.299Z,0
2019-03-20T04:42:33.256Z,0
2019-03-20T04:43:33.267Z,0
2019-03-20T04:44:33.175Z,0
2019-03-20T04:45:33.188Z,0
2019-03-20T04:46:32.921Z,0
2019-03-20T04:47:33.165Z,0
2019-03-20T04:48:33.157Z,0
2019-03-20T04:49:33.103Z,0
2019-03-20T04:50:33.098Z,0
2019-03-20T04:51:32.810Z,0
2019-03-20T04:52:33.097Z,0
2019-03-20T04:53:33.027Z,0
2019-03-20T04:54:33.053Z,0
2019-03-20T04:55:32.995Z,0
2019-03-20T04:56:33.076Z,0
2019-03-20T04:57:32.953Z,0
2019-03-20T04:58:32.971Z,5
2019-03-20T04:59:32.916Z,5
2019-03-20T05:00:32.960Z,5
2019-03-20T05:01:32.922Z,5
2019-03-20T05:02:32.878Z,5
2019-03-20T05:03:32.937Z,5
2019-03-20T05:04:32.878Z,5
2019-03-20T05:05:32.821Z,10
2019-03-20T05:06:32.834Z,10
2019-03-20T05:07:32.765Z,10
2019-03-20T05:08:32.802Z,10
2019-03-20T05:09:32.754Z,10
2019-03-20T05:10:32.800Z,15
2019-03-20T05:11:32.717Z,15
2019-03-20T05:12:32.791Z,15
2019-03-20T05:13:32.434Z,20
2019-03-20T05:14:32.679Z,20
2019-03-20T05:15:32.679Z,20
2019-03-20T05:16:32.608Z,25
2019-03-20T05:17:32.603Z,25
2019-03-20T05:18:32.608Z,25
2019-03-20T05:19:32.352Z,30
2019-03-20T05:20:32.586Z,30
2019-03-20T05:21:32.595Z,30
2019-03-20T05:22:32.524Z,35
2019-03-20T05:23:32.497Z,35
2019-03-20T05:24:32.518Z,40
2019-03-20T05:25:32.462Z,40
2019-03-20T05:26:32.459Z,40
2019-03-20T05:27:32.475Z,45
2019-03-20T05:28:32.414Z,45
2019-03-20T05:29:32.445Z,50
2019-03-20T05:30:32.396Z,50
2019-03-20T05:31:32.390Z,55
2019-03-20T05:32:32.332Z,65
2019-03-20T05:33:32.375Z,70
2019-03-20T05:34:32.317Z,75
2019-03-20T05:35:32.361Z,80
2019-03-20T05:36:32.313Z,85
2019-03-20T05:37:32.261Z,90
2019-03-20T05:38:32.266Z,95
2019-03-20T05:39:31.963Z,100
2019-03-20T05:40:32.251Z,100
2019-03-20T05:41:32.241Z,105
2019-03-20T05:42:32.208Z,110
2019-03-20T05:43:32.155Z,115
2019-03-20T05:44:32.176Z,120
2019-03-20T05:45:32.100Z,120
2019-03-20T05:46:32.155Z,130
2019-03-20T05:47:32.086Z,135
2019-03-20T05:48:32.185Z,135
2019-03-20T05:49:32.086Z,140
2019-03-20T05:50:32.053Z,145
2019-03-20T05:51:32.032Z,150
2019-03-20T05:52:32.044Z,160
2019-03-20T05:53:31.993Z,160
2019-03-20T05:54:31.986Z,165
2019-03-20T05:55:31.946Z,170
2019-03-20T05:56:31.787Z,175
2019-03-20T05:57:31.937Z,180
2019-03-20T05:58:31.961Z,180
2019-03-20T05:59:31.672Z,180
2019-03-20T06:00:31.947Z,180
2019-03-20T06:01:31.861Z,185
2019-03-20T06:02:32.993Z,190
2019-03-20T06:03:31.864Z,195
2019-03-20T06:04:31.895Z,195
2019-03-20T06:05:31.855Z,205
2019-03-20T06:06:31.838Z,220
2019-03-20T06:07:31.804Z,225
2019-03-20T06:08:33.691Z,230
2019-03-20T06:09:31.807Z,235
2019-03-20T06:10:31.786Z,235
2019-03-20T06:11:31.804Z,240
2019-03-20T06:12:31.740Z,245
2019-03-20T06:13:31.765Z,250
2019-03-20T06:14:31.711Z,260
2019-03-20T06:15:34.117Z,260
2019-03-20T06:16:31.701Z,260
2019-03-20T06:17:31.722Z,270
2019-03-20T06:18:31.705Z,280
2019-03-20T06:19:31.673Z,285
2019-03-20T06:20:33.683Z,290
2019-03-20T06:21:31.683Z,290
2019-03-20T06:22:32.175Z,295
2019-03-20T06:23:31.656Z,300
2019-03-20T06:24:31.620Z,300
2019-03-20T06:25:31.654Z,310
2019-03-20T06:26:31.628Z,315
2019-03-20T06:27:31.647Z,330
2019-03-20T06:28:31.596Z,340
2019-03-20T06:29:31.616Z,345
2019-03-20T06:30:31.573Z,360
2019-03-20T06:31:31.612Z,370
2019-03-20T06:32:31.556Z,370
2019-03-20T06:33:31.618Z,375
2019-03-20T06:34:31.607Z,385
2019-03-20T06:35:31.573Z,395
2019-03-20T06:36:33.096Z,405
2019-03-20T06:37:41.912Z,415
2019-03-20T06:38:31.541Z,420
2019-03-20T06:39:31.543Z,425
2019-03-20T06:40:31.551Z,435
2019-03-20T06:41:31.295Z,440
2019-03-20T06:42:31.269Z,435
2019-03-20T06:43:31.523Z,445
2019-03-20T06:44:31.473Z,440
2019-03-20T06:45:31.517Z,415
2019-03-20T06:46:31.465Z,430
2019-03-20T06:47:31.248Z,430
2019-03-20T06:48:31.448Z,435
2019-03-20T06:49:31.501Z,445
2019-03-20T06:50:31.522Z,460
2019-03-20T06:51:31.493Z,470
2019-03-20T06:52:31.425Z,470
2019-03-20T06:53:31.437Z,480
2019-03-20T06:54:31.437Z,490
2019-03-20T06:55:31.472Z,505
2019-03-20T06:56:31.479Z,520
2019-03-20T06:57:31.424Z,525
2019-03-20T06:58:31.425Z,540
2019-03-20T06:59:31.395Z,560
2019-03-20T07:00:31.444Z,570
2019-03-20T07:01:31.399Z,585
2019-03-20T07:02:31.197Z,590
2019-03-20T07:03:31.388Z,605
2019-03-20T07:04:31.179Z,600
2019-03-20T07:05:31.366Z,605
2019-03-20T07:06:31.417Z,600
2019-03-20T07:07:31.375Z,605
2019-03-20T07:08:31.178Z,595
2019-03-20T07:09:31.124Z,600
2019-03-20T07:10:31.381Z,620
2019-03-20T07:11:31.399Z,670
2019-03-20T07:12:31.397Z,785
2019-03-20T07:13:31.356Z,855
2019-03-20T07:14:31.359Z,865
2019-03-20T07:15:31.342Z,880
2019-03-20T07:16:31.390Z,895
2019-03-20T07:17:31.349Z,900
2019-03-20T07:18:31.389Z,915
2019-03-20T07:19:31.341Z,915
2019-03-20T07:20:31.382Z,930
2019-03-20T07:21:31.369Z,940
2019-03-20T07:22:31.354Z,960
2019-03-20T07:23:31.328Z,980
2019-03-20T07:24:31.127Z,995
2019-03-20T07:25:31.362Z,1000
2019-03-20T07:26:33.484Z,1015
2019-03-20T07:27:31.345Z,1030
2019-03-20T07:28:31.315Z,1045
2019-03-20T07:29:31.351Z,1060
2019-03-20T07:30:31.337Z,1065
2019-03-20T07:31:31.371Z,1070
2019-03-20T07:32:32.507Z,1075
2019-03-20T07:33:31.354Z,1075
2019-03-20T07:34:31.349Z,1065
2019-03-20T07:35:31.325Z,1080
2019-03-20T07:37:33.621Z,1095
2019-03-20T07:38:31.321Z,980
2019-03-20T07:39:31.350Z,810
2019-03-20T07:40:31.321Z,770
2019-03-20T07:41:31.414Z,770
2019-03-20T07:42:31.108Z,785
2019-03-20T07:43:31.933Z,805
2019-03-20T07:44:31.339Z,810
2019-03-20T07:45:31.320Z,810
2019-03-20T07:46:31.117Z,810
2019-03-20T07:47:31.109Z,810
2019-03-20T07:48:32.219Z,820
2019-03-20T07:49:31.322Z,830
2019-03-20T07:50:31.356Z,830
2019-03-20T07:51:31.421Z,840
2019-03-20T07:52:31.378Z,850
2019-03-20T07:53:31.320Z,865
2019-03-20T07:54:31.373Z,870
2019-03-20T07:55:31.354Z,875
2019-03-20T07:56:31.387Z,875
2019-03-20T07:57:31.322Z,885
2019-03-20T07:58:31.340Z,890
2019-03-20T07:59:31.358Z,895
2019-03-20T08:00:31.366Z,900
2019-03-20T08:01:31.340Z,910
2019-03-20T08:02:31.368Z,910
2019-03-20T08:03:31.359Z,910
2019-03-20T08:04:31.384Z,915
2019-03-20T08:05:38.793Z,920
2019-03-20T08:06:31.367Z,915
2019-03-20T08:07:31.335Z,925
2019-03-20T08:08:31.118Z,915
2019-03-20T08:09:33.014Z,920
2019-03-20T08:10:31.381Z,680
2019-03-20T08:11:31.343Z,295
2019-03-20T08:12:31.398Z,190
2019-03-20T08:13:31.310Z,185
2019-03-20T08:14:31.329Z,185
2019-03-20T08:15:31.343Z,185
2019-03-20T08:16:31.355Z,190
2019-03-20T08:17:31.373Z,190
2019-03-20T08:18:31.323Z,195
2019-03-20T08:19:31.341Z,195
2019-03-20T08:20:31.300Z,195
2019-03-20T08:21:31.349Z,200
2019-03-20T08:22:31.309Z,200
2019-03-20T08:23:31.346Z,200
2019-03-20T08:24:31.310Z,200
2019-03-20T08:25:31.334Z,200
2019-03-20T08:26:31.286Z,205
2019-03-20T08:27:31.299Z,205
2019-03-20T08:28:31.313Z,200
2019-03-20T08:29:31.258Z,200
2019-03-20T08:30:31.268Z,195
2019-03-20T08:31:31.299Z,195
2019-03-20T08:32:31.284Z,195
2019-03-20T08:33:31.291Z,195
2019-03-20T08:34:31.248Z,195
2019-03-20T08:35:31.251Z,200
2019-03-20T08:36:31.218Z,200
2019-03-20T08:37:31.260Z,200
2019-03-20T08:38:31.219Z,200
2019-03-20T08:39:31.218Z,200
2019-03-20T08:40:31.229Z,195
2019-03-20T08:41:31.391Z,195
2019-03-20T08:42:30.975Z,195
2019-03-20T08:43:31.212Z,195
2019-03-20T08:44:31.252Z,195
2019-03-20T08:45:31.145Z,195
2019-03-20T08:46:31.149Z,200
2019-03-20T08:47:31.155Z,200
2019-03-20T08:48:31.168Z,200
2019-03-20T08:49:30.921Z,200
2019-03-20T08:51:30.893Z,200
2019-03-20T08:52:31.125Z,195
2019-03-20T08:53:31.091Z,195
2019-03-20T08:54:31.124Z,195
2019-03-20T08:55:31.061Z,190
2019-03-20T08:56:31.094Z,195
2019-03-20T08:57:30.810Z,195
2019-03-20T08:58:31.098Z,200
2019-03-20T08:59:31.075Z,200
2019-03-20T09:00:31.045Z,200
2019-03-20T09:01:38.296Z,200
2019-03-20T09:02:30.768Z,200
2019-03-20T09:03:31.034Z,205
2019-03-20T09:04:31.022Z,205
2019-03-20T09:05:31.038Z,205
2019-03-20T09:06:30.973Z,205
2019-03-20T09:07:30.991Z,210
2019-03-20T09:08:38.988Z,210
2019-03-20T09:09:30.987Z,210
2019-03-20T09:10:30.944Z,210
2019-03-20T09:11:30.731Z,205
2019-03-20T09:12:30.692Z,205
2019-03-20T09:13:30.958Z,205
2019-03-20T09:14:30.649Z,200
2019-03-20T09:15:30.911Z,205
2019-03-20T09:16:30.903Z,205
2019-03-20T09:17:30.673Z,200
2019-03-20T09:18:30.870Z,200
2019-03-20T09:19:30.892Z,200
2019-03-20T09:20:30.868Z,195
2019-03-20T09:21:30.898Z,195
2019-03-20T09:22:30.828Z,195
2019-03-20T09:23:30.848Z,195
2019-03-20T09:24:30.808Z,195
2019-03-20T09:25:30.835Z,195
2019-03-20T09:26:30.791Z,195
2019-03-20T09:27:30.831Z,195
2019-03-20T09:28:30.792Z,195
2019-03-20T09:29:41.228Z,200
2019-03-20T09:30:30.758Z,200
2019-03-20T09:31:30.760Z,200
2019-03-20T09:32:30.771Z,200
2019-03-20T09:33:30.771Z,200
2019-03-20T09:34:30.791Z,205
2019-03-20T09:35:30.753Z,205
2019-03-20T09:36:30.512Z,210
2019-03-20T09:37:30.446Z,210
2019-03-20T09:38:30.481Z,210
2019-03-20T09:39:30.685Z,210
2019-03-20T09:40:33.282Z,210
2019-03-20T09:41:30.673Z,205
2019-03-20T09:42:30.702Z,205
2019-03-20T09:43:30.654Z,205
2019-03-20T09:44:30.649Z,205
2019-03-20T09:45:30.696Z,205
2019-03-20T09:46:30.606Z,205
2019-03-20T09:47:30.623Z,200
2019-03-20T09:48:30.614Z,200
2019-03-20T09:49:30.382Z,200
2019-03-20T09:50:30.638Z,200
2019-03-20T09:51:30.617Z,195
2019-03-20T09:52:30.589Z,200
2019-03-20T09:53:30.549Z,200
2019-03-20T09:54:30.349Z,195
2019-03-20T09:55:30.845Z,195
2019-03-20T09:56:30.577Z,190
2019-03-20T09:57:30.276Z,190
2019-03-20T09:58:30.548Z,190
2019-03-20T09:59:30.493Z,190
2019-03-20T10:00:30.524Z,190
2019-03-20T10:01:30.500Z,190
2019-03-20T10:02:30.523Z,195
2019-03-20T10:03:30.549Z,195
2019-03-20T10:04:30.486Z,195
2019-03-20T10:05:30.494Z,200
2019-03-20T10:06:32.642Z,205
2019-03-20T10:07:30.460Z,205
2019-03-20T10:08:30.453Z,210
2019-03-20T10:09:30.420Z,215
2019-03-20T10:10:30.506Z,220
2019-03-20T10:11:30.406Z,220
2019-03-20T10:12:30.441Z,220
2019-03-20T10:13:30.391Z,220
2019-03-20T10:14:30.419Z,225
2019-03-20T10:15:30.128Z,225
2019-03-20T10:16:30.379Z,220
2019-03-20T10:17:30.350Z,210
2019-03-20T10:18:30.391Z,210
2019-03-20T10:19:30.371Z,205
2019-03-20T10:20:30.349Z,205
2019-03-20T10:21:30.329Z,200
2019-03-20T10:22:30.359Z,205
2019-03-20T10:23:30.068Z,210
2019-03-20T10:24:30.342Z,210
2019-03-20T10:25:30.291Z,210
2019-03-20T10:26:30.315Z,210
2019-03-20T10:27:30.273Z,205
2019-03-20T10:28:30.098Z,200
2019-03-20T10:29:30.250Z,200
2019-03-20T10:30:30.339Z,195
2019-03-20T10:31:30.230Z,195
2019-03-20T10:32:30.259Z,185
2019-03-20T10:33:30.224Z,180
2019-03-20T10:34:39.120Z,180
2019-03-20T10:35:29.974Z,175
2019-03-20T10:36:30.214Z,175
2019-03-20T10:37:30.221Z,175
2019-03-20T10:38:30.233Z,175
2019-03-20T10:39:30.201Z,175
2019-03-20T10:40:30.207Z,175
2019-03-20T10:41:30.139Z,175
2019-03-20T10:42:30.186Z,170
2019-03-20T10:43:30.144Z,170
2019-03-20T10:44:30.174Z,170
2019-03-20T10:45:30.144Z,170
2019-03-20T10:46:30.171Z,170
2019-03-20T10:47:30.121Z,175
2019-03-20T10:48:30.127Z,170
2019-03-20T10:49:30.128Z,175
2019-03-20T10:50:31.114Z,175
2019-03-20T10:51:30.119Z,175
2019-03-20T10:52:30.104Z,175
2019-03-20T10:53:29.833Z,175
2019-03-20T10:54:30.105Z,175
2019-03-20T10:55:30.104Z,175
2019-03-20T10:56:30.088Z,175
2019-03-20T10:57:30.077Z,175
2019-03-20T10:58:29.770Z,175
2019-03-20T10:59:30.038Z,175
2019-03-20T11:00:30.038Z,175
2019-03-20T11:01:30.024Z,175
2019-03-20T11:02:30.027Z,175
2019-03-20T11:03:29.723Z,175
2019-03-20T11:04:30.108Z,175
2019-03-20T11:05:29.962Z,175
2019-03-20T11:06:30.001Z,180
2019-03-20T11:07:29.982Z,180
2019-03-20T11:08:29.990Z,185
2019-03-20T11:09:29.982Z,180
2019-03-20T11:10:30.005Z,180
2019-03-20T11:11:36.508Z,180
2019-03-20T11:12:29.991Z,180
2019-03-20T11:13:29.972Z,175
2019-03-20T11:14:29.897Z,185
2019-03-20T11:15:32.082Z,185
2019-03-20T11:16:29.904Z,180
2019-03-20T11:17:29.912Z,180
2019-03-20T11:18:29.877Z,180
2019-03-20T11:19:29.908Z,180
2019-03-20T11:20:29.869Z,180
2019-03-20T11:21:29.620Z,180
2019-03-20T11:22:29.819Z,185
2019-03-20T11:23:29.577Z,185
2019-03-20T11:24:29.829Z,190
2019-03-20T11:25:29.837Z,190
2019-03-20T11:26:29.792Z,200
2019-03-20T11:27:33.395Z,200
2019-03-20T11:28:29.546Z,200
2019-03-20T11:29:31.423Z,205
2019-03-20T11:30:29.769Z,205
2019-03-20T11:31:29.778Z,210
2019-03-20T11:32:29.734Z,225
2019-03-20T11:33:29.524Z,230
2019-03-20T11:34:29.782Z,230
2019-03-20T11:35:29.577Z,230
2019-03-20T11:36:29.731Z,235
2019-03-20T11:37:29.766Z,235
2019-03-20T11:38:29.448Z,250
2019-03-20T11:39:39.031Z,250
2019-03-20T11:40:29.703Z,250
2019-03-20T11:41:29.714Z,255
2019-03-20T11:42:29.711Z,260
2019-03-20T11:43:29.420Z,270
2019-03-20T11:44:29.661Z,275
2019-03-20T11:45:30.810Z,285
2019-03-20T11:46:29.682Z,290
2019-03-20T11:47:29.642Z,310
2019-03-20T11:48:29.671Z,330
2019-03-20T11:49:29.623Z,340
2019-03-20T11:50:29.401Z,340
2019-03-20T11:51:29.609Z,330
2019-03-20T11:52:29.611Z,330
2019-03-20T11:53:29.618Z,325
2019-03-20T11:54:29.591Z,320
2019-03-20T11:55:29.341Z,325
2019-03-20T11:56:29.583Z,325
2019-03-20T11:57:31.262Z,330
2019-03-20T11:58:29.602Z,340
2019-03-20T11:59:29.557Z,365
2019-03-20T12:00:29.559Z,375
2019-03-20T12:01:29.529Z,385
2019-03-20T12:02:37.874Z,380
2019-03-20T12:03:29.562Z,370
2019-03-20T12:04:29.534Z,365
2019-03-20T12:05:29.541Z,350
2019-03-20T12:06:29.501Z,350
2019-03-20T12:07:29.537Z,375
2019-03-20T12:08:29.257Z,425
2019-03-20T12:09:40.447Z,430
2019-03-20T12:10:29.466Z,420
2019-03-20T12:11:29.632Z,430
2019-03-20T12:12:29.478Z,425
2019-03-20T12:13:29.530Z,435
2019-03-20T12:14:29.248Z,455
2019-03-20T12:15:29.459Z,425
2019-03-20T12:16:29.459Z,405
2019-03-20T12:17:29.857Z,395
2019-03-20T12:18:29.429Z,385
2019-03-20T12:19:29.470Z,375
2019-03-20T12:20:29.435Z,375
2019-03-20T12:21:29.223Z,390
2019-03-20T12:22:29.184Z,430
2019-03-20T12:23:29.452Z,465
2019-03-20T12:24:29.442Z,445
2019-03-20T12:25:29.194Z,415
2019-03-20T12:26:29.391Z,390
2019-03-20T12:27:29.389Z,375
2019-03-20T12:28:29.414Z,375
2019-03-20T12:29:29.410Z,390
2019-03-20T12:30:29.434Z,395
2019-03-20T12:31:29.373Z,405
2019-03-20T12:32:29.595Z,405
2019-03-20T12:33:29.355Z,375
2019-03-20T12:34:29.396Z,355
2019-03-20T12:35:29.350Z,340
2019-03-20T12:36:29.402Z,340
2019-03-20T12:37:29.352Z,330
2019-03-20T12:38:29.375Z,335
2019-03-20T12:39:29.366Z,355
2019-03-20T12:40:29.357Z,370
2019-03-20T12:41:29.317Z,390
2019-03-20T12:42:29.357Z,365
2019-03-20T12:43:29.315Z,335
2019-03-20T12:44:29.381Z,315
2019-03-20T12:45:29.345Z,310
2019-03-20T12:46:43.303Z,340
2019-03-20T12:47:29.297Z,365
2019-03-20T12:48:29.297Z,345
2019-03-20T12:49:29.268Z,325
2019-03-20T12:50:29.117Z,315
2019-03-20T12:51:29.270Z,300
2019-03-20T12:52:29.317Z,290
2019-03-20T12:53:29.272Z,275
2019-03-20T12:54:29.328Z,260
2019-03-20T12:55:31.033Z,245
2019-03-20T12:56:29.032Z,235
2019-03-20T12:57:29.238Z,230
2019-03-20T12:58:29.286Z,225
2019-03-20T12:59:29.280Z,220
2019-03-20T13:00:31.929Z,235
2019-03-20T13:01:29.227Z,255
2019-03-20T13:02:29.206Z,255
2019-03-20T13:03:30.607Z,245
2019-03-20T13:04:29.224Z,235
2019-03-20T13:05:29.256Z,230
2019-03-20T13:06:29.185Z,240
2019-03-20T13:07:29.252Z,255
2019-03-20T13:08:29.207Z,250
2019-03-20T13:09:29.198Z,260
2019-03-20T13:10:29.217Z,265
2019-03-20T13:11:29.156Z,275
2019-03-20T13:12:29.180Z,295
2019-03-20T13:13:29.231Z,320
2019-03-20T13:14:29.215Z,305
2019-03-20T13:15:29.172Z,280
2019-03-20T13:16:29.162Z,255
2019-03-20T13:17:29.173Z,265
2019-03-20T13:18:29.119Z,250
2019-03-20T13:19:29.145Z,250
2019-03-20T13:20:29.159Z,260
2019-03-20T13:21:29.157Z,305
2019-03-20T13:22:29.118Z,335
2019-03-20T13:23:29.135Z,315
2019-03-20T13:24:29.078Z,290
2019-03-20T13:25:29.126Z,270
2019-03-20T13:26:29.071Z,250
2019-03-20T13:27:29.118Z,235
2019-03-20T13:28:29.087Z,235
2019-03-20T13:29:29.098Z,235
2019-03-20T13:30:29.824Z,240
2019-03-20T13:31:29.064Z,260
2019-03-20T13:32:29.069Z,270
2019-03-20T13:33:35.367Z,250
2019-03-20T13:34:29.023Z,240
2019-03-20T13:35:29.057Z,230
2019-03-20T13:36:29.047Z,230
2019-03-20T13:37:29.059Z,240
2019-03-20T13:38:29.006Z,260
2019-03-20T13:39:29.028Z,270
2019-03-20T13:40:29.007Z,275
2019-03-20T13:41:28.773Z,260
2019-03-20T13:42:28.989Z,250
2019-03-20T13:43:29.029Z,260
2019-03-20T13:44:28.997Z,275
2019-03-20T13:45:29.002Z,275
2019-03-20T13:46:28.953Z,280
2019-03-20T13:47:28.968Z,285
2019-03-20T13:48:28.963Z,270
2019-03-20T13:49:28.978Z,255
2019-03-20T13:50:28.981Z,245
2019-03-20T13:51:28.944Z,240
2019-03-20T13:52:28.942Z,240
2019-03-20T13:53:28.911Z,245
2019-03-20T13:54:28.954Z,265
2019-03-20T13:55:28.916Z,275
2019-03-20T13:56:28.953Z,290
2019-03-20T13:57:28.893Z,280
2019-03-20T13:58:28.932Z,270
2019-03-20T13:59:28.888Z,265
2019-03-20T14:00:28.899Z,270
2019-03-20T14:01:28.914Z,255
2019-03-20T14:02:28.857Z,235
2019-03-20T14:03:28.866Z,220
2019-03-20T14:04:28.877Z,225
2019-03-20T14:05:28.897Z,240
2019-03-20T14:06:28.890Z,275
2019-03-20T14:07:28.860Z,320
2019-03-20T14:08:28.847Z,335
2019-03-20T14:09:28.829Z,325